createdAt,value
2023-06-12T00:00:28.450Z,83.84
2023-06-12T00:02:32.929Z,83.56
2023-06-12T00:04:37.536Z,83.90
2023-06-12T00:06:42.655Z,84.00
2023-06-12T00:08:48.095Z,84.08
2023-06-12T00:10:51.125Z,83.73
2023-06-12T00:12:54.394Z,83.61
2023-06-12T00:14:57.346Z,84.04
2023-06-12T00:17:00.303Z,83.53
2023-06-12T00:19:05.007Z,83.84
2023-06-12T00:21:10.950Z,83.59
2023-06-12T00:23:13.964Z,84.20
2023-06-12T00:25:16.936Z,83.39
2023-06-12T00:27:19.847Z,84.36
2023-06-12T00:29:22.885Z,83.69
2023-06-12T00:31:26.127Z,84.37
2023-06-12T00:33:29.468Z,84.07
2023-06-12T00:35:32.568Z,83.94
2023-06-12T00:37:37.064Z,84.18
2023-06-12T00:39:40.043Z,84.33
2023-06-12T00:41:43.053Z,84.33
2023-06-12T00:43:46.122Z,84.31
2023-06-12T00:45:49.241Z,84.59
2023-06-12T00:47:54.334Z,85.16
2023-06-12T00:49:59.886Z,84.61
2023-06-12T00:52:03.346Z,84.88
2023-06-12T00:54:08.007Z,84.89
2023-06-12T00:56:12.471Z,84.47
2023-06-12T00:58:15.503Z,85.22
2023-06-12T01:00:20.201Z,84.22
2023-06-12T01:02:24.136Z,84.59
2023-06-12T01:04:27.604Z,85.28
2023-06-12T01:06:40.626Z,84.73
2023-06-12T01:08:58.225Z,84.72
2023-06-12T01:11:08.786Z,84.31
2023-06-12T01:13:13.999Z,84.15
2023-06-12T01:15:17.116Z,84.53
2023-06-12T01:17:20.564Z,84.29
2023-06-12T01:19:23.631Z,84.58
2023-06-12T01:21:30.707Z,84.38
2023-06-12T01:23:53.199Z,84.65
2023-06-12T01:26:27.811Z,84.76
2023-06-12T01:28:57.587Z,85.38
2023-06-12T01:31:15.162Z,85.46
2023-06-12T01:33:23.019Z,84.98
2023-06-12T01:35:31.679Z,83.98
2023-06-12T01:37:45.843Z,84.54
2023-06-12T01:40:00.179Z,84.08
2023-06-12T01:42:04.761Z,84.43
2023-06-12T01:44:09.935Z,85.14
2023-06-12T01:46:13.024Z,84.87
2023-06-12T01:48:18.060Z,85.46
2023-06-12T01:50:23.207Z,85.26
2023-06-12T01:52:27.625Z,85.25
2023-06-12T01:54:31.067Z,85.12
2023-06-12T01:56:34.299Z,85.04
2023-06-12T01:58:37.836Z,85.06
2023-06-12T02:00:47.665Z,84.68
2023-06-12T02:02:57.951Z,85.06
2023-06-12T02:05:07.397Z,85.35
2023-06-12T02:07:12.563Z,85.33
2023-06-12T02:09:16.542Z,85.85
2023-06-12T02:11:19.607Z,85.61
2023-06-12T02:13:22.533Z,84.80
2023-06-12T02:15:26.044Z,85.51
2023-06-12T02:17:30.037Z,85.41
2023-06-12T02:19:34.078Z,85.82
2023-06-12T02:21:37.111Z,85.37
2023-06-12T02:23:43.253Z,85.48
2023-06-12T02:25:46.350Z,85.62
2023-06-12T02:27:49.464Z,85.89
2023-06-12T02:29:54.025Z,86.07
2023-06-12T02:31:57.380Z,85.91
2023-06-12T02:34:00.595Z,85.82
2023-06-12T02:36:03.664Z,85.66
2023-06-12T02:38:06.763Z,85.64
2023-06-12T02:40:13.357Z,85.25
2023-06-12T02:42:16.733Z,85.52
2023-06-12T02:44:20.676Z,85.75
2023-06-12T02:46:24.918Z,85.73
2023-06-12T02:48:27.976Z,85.71
2023-06-12T02:50:30.897Z,85.73
2023-06-12T02:52:38.306Z,85.98
2023-06-12T02:54:41.298Z,85.32
2023-06-12T02:56:49.404Z,85.52
2023-06-12T02:58:53.145Z,85.80
2023-06-12T03:00:57.781Z,85.09
2023-06-12T03:03:02.378Z,85.50
2023-06-12T03:05:06.300Z,85.31
2023-06-12T03:07:09.892Z,85.25
2023-06-12T03:09:13.376Z,85.22
2023-06-12T03:11:16.556Z,85.42
2023-06-12T03:13:21.786Z,85.30
2023-06-12T03:15:26.067Z,85.06
2023-06-12T03:17:29.698Z,85.29
2023-06-12T03:19:32.972Z,85.06
2023-06-12T03:21:37.500Z,85.30
2023-06-12T03:23:40.596Z,85.09
2023-06-12T03:25:43.774Z,85.13
2023-06-12T03:27:47.146Z,85.48
2023-06-12T03:29:51.922Z,85.64
2023-06-12T03:31:56.393Z,85.41
2023-06-12T03:34:01.343Z,85.57
2023-06-12T03:36:05.204Z,84.91
2023-06-12T03:38:08.506Z,85.63
2023-06-12T03:40:13.700Z,85.44
2023-06-12T03:42:18.728Z,85.22
2023-06-12T03:44:27.761Z,85.89
2023-06-12T03:46:34.495Z,86.03
2023-06-12T03:48:38.086Z,86.03
2023-06-12T03:50:41.961Z,86.12
2023-06-12T03:52:45.025Z,86.29
2023-06-12T03:54:48.266Z,86.47
2023-06-12T03:56:51.343Z,86.22
2023-06-12T03:58:54.516Z,86.25
2023-06-12T04:00:57.938Z,85.45
2023-06-12T04:03:03.705Z,85.71
2023-06-12T04:05:09.683Z,85.79
2023-06-12T04:07:14.662Z,86.41
2023-06-12T04:09:18.293Z,86.70
2023-06-12T04:11:22.322Z,86.69
2023-06-12T04:13:25.738Z,86.29
2023-06-12T04:15:30.514Z,86.35
2023-06-12T04:17:33.641Z,86.04
2023-06-12T04:19:38.119Z,86.13
2023-06-12T04:21:41.799Z,86.65
2023-06-12T04:23:49.032Z,86.92
2023-06-12T04:25:53.039Z,87.35
2023-06-12T04:27:56.790Z,86.77
2023-06-12T04:30:00.980Z,87.54
2023-06-12T04:32:06.934Z,87.18
2023-06-12T04:34:11.147Z,87.32
2023-06-12T04:36:19.112Z,86.99
2023-06-12T04:38:25.290Z,86.85
2023-06-12T04:40:28.925Z,87.26
2023-06-12T04:42:33.572Z,86.59
2023-06-12T04:44:37.494Z,86.67
2023-06-12T04:46:41.149Z,86.62
2023-06-12T04:48:44.620Z,87.53
2023-06-12T04:50:57.709Z,86.90
2023-06-12T04:53:02.584Z,87.43
2023-06-12T04:55:09.533Z,87.28
2023-06-12T04:57:17.684Z,87.58
2023-06-12T04:59:22.160Z,85.93
2023-06-12T05:01:25.068Z,86.66
2023-06-12T05:03:29.372Z,87.18
2023-06-12T05:05:32.747Z,85.25
2023-06-12T05:07:37.315Z,85.44
2023-06-12T05:09:41.762Z,85.47
2023-06-12T05:11:45.273Z,83.98
2023-06-12T05:13:48.618Z,84.75
2023-06-12T05:15:52.525Z,85.13
2023-06-12T05:17:56.001Z,85.63
2023-06-12T05:20:00.398Z,85.74
2023-06-12T05:22:03.810Z,84.20
2023-06-12T05:24:07.587Z,85.37
2023-06-12T05:26:12.649Z,84.54
2023-06-12T05:28:16.630Z,83.80
2023-06-12T05:30:19.871Z,83.46
2023-06-12T05:32:24.200Z,83.94
2023-06-12T05:34:27.624Z,82.43
2023-06-12T05:36:31.142Z,80.98
2023-06-12T05:38:35.836Z,80.67
2023-06-12T05:40:39.089Z,80.96
2023-06-12T05:42:44.699Z,80.70
2023-06-12T05:44:48.465Z,81.64
2023-06-12T05:46:53.680Z,80.92
2023-06-12T05:48:58.738Z,81.56
2023-06-12T05:51:02.533Z,77.75
2023-06-12T05:53:09.383Z,78.83
2023-06-12T05:55:13.168Z,77.88
2023-06-12T05:57:16.545Z,77.94
2023-06-12T05:59:22.528Z,73.89
2023-06-12T06:01:26.825Z,75.62
2023-06-12T06:03:34.514Z,75.42
2023-06-12T06:05:39.867Z,72.52
2023-06-12T06:07:50.177Z,72.41
2023-06-12T06:09:53.699Z,73.86
2023-06-12T06:11:56.996Z,68.67
2023-06-12T06:14:01.831Z,67.93
2023-06-12T06:16:08.799Z,67.32
2023-06-12T06:18:14.088Z,66.60
2023-06-12T06:20:19.000Z,65.96
2023-06-12T06:22:25.558Z,65.56
2023-06-12T06:24:29.550Z,62.99
2023-06-12T06:26:35.666Z,65.47
2023-06-12T06:28:39.491Z,61.11
2023-06-12T06:30:42.618Z,62.08
2023-06-12T06:32:48.260Z,56.87
2023-06-12T06:34:51.671Z,57.55
2023-06-12T06:36:54.903Z,60.16
2023-06-12T06:38:58.274Z,60.93
2023-06-12T06:41:01.694Z,58.23
2023-06-12T06:43:07.011Z,57.43
2023-06-12T06:45:25.253Z,57.03
2023-06-12T06:47:30.198Z,58.17
2023-06-12T06:49:36.416Z,58.05
2023-06-12T06:51:40.376Z,54.99
2023-06-12T06:53:43.416Z,52.94
2023-06-12T06:55:46.631Z,54.05
2023-06-12T06:57:52.223Z,55.63
2023-06-12T06:59:56.324Z,51.61
2023-06-12T07:01:59.639Z,52.71
2023-06-12T07:04:03.492Z,53.15
2023-06-12T07:06:08.538Z,54.23
2023-06-12T07:08:12.338Z,54.44
2023-06-12T07:10:17.800Z,52.19
2023-06-12T07:12:21.586Z,55.51
2023-06-12T07:14:24.790Z,53.91
2023-06-12T07:16:29.109Z,53.11
2023-06-12T07:18:32.604Z,53.97
2023-06-12T07:20:35.896Z,54.17
2023-06-12T07:22:40.637Z,51.39
2023-06-12T07:24:44.057Z,49.64
2023-06-12T07:26:47.740Z,49.88
2023-06-12T07:28:51.153Z,53.51
2023-06-12T07:30:54.704Z,50.52
2023-06-12T07:32:58.032Z,51.99
2023-06-12T07:35:01.336Z,52.02
2023-06-12T07:37:06.225Z,50.48
2023-06-12T07:39:12.201Z,52.78
2023-06-12T07:41:15.307Z,52.53
2023-06-12T07:43:18.444Z,52.78
2023-06-12T07:45:22.023Z,52.64
2023-06-12T07:47:25.822Z,51.12
2023-06-12T07:49:29.495Z,51.09
2023-06-12T07:51:33.187Z,49.11
2023-06-12T07:53:38.668Z,48.10
2023-06-12T07:55:48.074Z,47.79
2023-06-12T07:57:51.812Z,47.22
2023-06-12T07:59:55.142Z,48.77
2023-06-12T08:01:58.868Z,50.01
2023-06-12T08:04:01.888Z,50.02
2023-06-12T08:06:06.436Z,48.54
2023-06-12T08:08:13.774Z,49.41
2023-06-12T08:10:18.593Z,50.32
2023-06-12T08:12:23.643Z,48.33
2023-06-12T08:14:27.879Z,50.37
2023-06-12T08:16:33.458Z,50.41
2023-06-12T08:18:36.794Z,50.61
2023-06-12T08:20:40.477Z,48.38
2023-06-12T08:22:44.308Z,48.33
2023-06-12T08:24:47.737Z,48.55
2023-06-12T08:26:50.891Z,45.90
2023-06-12T08:28:55.528Z,47.63
2023-06-12T08:31:03.202Z,47.70
2023-06-12T08:33:06.607Z,46.41
2023-06-12T08:35:10.966Z,46.52
2023-06-12T08:37:14.650Z,48.58
2023-06-12T08:39:18.206Z,48.51
2023-06-12T08:41:26.386Z,45.11
2023-06-12T08:43:32.178Z,45.17
2023-06-12T08:45:44.371Z,45.13
2023-06-12T08:47:50.311Z,45.54
2023-06-12T08:49:54.008Z,44.39
2023-06-12T08:51:57.136Z,44.29
2023-06-12T08:54:02.433Z,45.25
2023-06-12T08:56:05.426Z,41.48
2023-06-12T08:58:11.400Z,41.18
2023-06-12T09:00:16.702Z,38.54
2023-06-12T09:02:24.931Z,39.97
2023-06-12T09:04:39.073Z,38.10
2023-06-12T09:06:44.239Z,39.08
2023-06-12T09:08:47.266Z,40.48
2023-06-12T09:10:50.936Z,40.01
2023-06-12T09:12:55.762Z,41.60
2023-06-12T09:15:02.447Z,42.53
2023-06-12T09:17:09.626Z,41.52
2023-06-12T09:19:14.095Z,40.97
2023-06-12T09:21:17.988Z,40.17
2023-06-12T09:23:21.205Z,40.42
2023-06-12T09:25:28.803Z,40.15
2023-06-12T09:27:32.927Z,39.78
2023-06-12T09:29:37.722Z,40.91
2023-06-12T09:31:42.574Z,40.48
2023-06-12T09:33:46.084Z,42.18
2023-06-12T09:35:54.291Z,41.73
2023-06-12T09:37:59.461Z,43.11
2023-06-12T09:40:20.546Z,43.15
2023-06-12T09:42:23.786Z,42.30
2023-06-12T09:44:29.661Z,41.21
2023-06-12T09:46:33.740Z,42.01
2023-06-12T09:51:06.129Z,43.35
2023-06-12T09:53:11.517Z,41.43
2023-06-12T09:55:15.266Z,44.38
2023-06-12T09:57:19.454Z,41.22
2023-06-12T09:59:25.321Z,38.42
2023-06-12T10:01:29.022Z,35.53
2023-06-12T10:03:34.683Z,39.82
2023-06-12T10:05:42.498Z,40.74
2023-06-12T10:07:53.461Z,37.89
2023-06-12T10:09:57.972Z,42.22
2023-06-12T10:12:02.332Z,41.76
2023-06-12T10:14:05.490Z,43.51
2023-06-12T10:16:09.508Z,42.17
2023-06-12T10:18:13.647Z,43.04
2023-06-12T10:20:19.930Z,41.28
2023-06-12T10:22:23.025Z,40.84
2023-06-12T10:24:28.637Z,40.29
2023-06-12T10:26:32.251Z,40.67
2023-06-12T10:28:35.761Z,41.13
2023-06-12T10:30:38.793Z,39.82
2023-06-12T10:32:43.835Z,41.38
2023-06-12T10:34:47.391Z,40.38
2023-06-12T10:36:50.838Z,41.14
2023-06-12T10:39:03.745Z,41.46
2023-06-12T10:41:09.537Z,42.06
2023-06-12T10:43:14.110Z,41.36
2023-06-12T10:45:19.246Z,39.68
2023-06-12T10:47:25.214Z,41.24
2023-06-12T10:49:28.456Z,39.83
2023-06-12T10:51:35.195Z,42.07
2023-06-12T10:53:38.377Z,40.48
2023-06-12T10:55:42.930Z,39.01
2023-06-12T10:57:52.253Z,39.58
2023-06-12T10:59:58.040Z,38.60
2023-06-12T11:02:01.262Z,42.53
2023-06-12T11:04:06.404Z,37.88
2023-06-12T11:06:15.051Z,39.12
2023-06-12T11:08:19.201Z,41.91
2023-06-12T11:10:22.845Z,40.19
2023-06-12T11:12:32.239Z,38.13
2023-06-12T11:14:45.269Z,37.14
2023-06-12T11:16:49.981Z,38.30
2023-06-12T11:19:07.746Z,39.09
2023-06-12T11:21:12.880Z,38.51
2023-06-12T11:23:17.625Z,37.41
2023-06-12T11:25:21.493Z,37.03
2023-06-12T11:27:25.575Z,35.54
2023-06-12T11:29:30.928Z,37.97
2023-06-12T11:31:38.463Z,38.78
2023-06-12T11:33:42.161Z,37.70
2023-06-12T11:35:46.991Z,36.91
2023-06-12T11:40:09.174Z,40.17
2023-06-12T11:42:13.558Z,37.31
2023-06-12T11:44:17.647Z,35.28
2023-06-12T11:46:21.842Z,38.04
2023-06-12T11:50:36.185Z,38.66
2023-06-12T11:52:41.436Z,38.04
2023-06-12T11:57:18.591Z,35.61
2023-06-12T11:59:35.403Z,36.74
2023-06-12T12:01:39.630Z,36.25
2023-06-12T12:03:50.157Z,35.98
2023-06-12T12:05:56.739Z,36.36
2023-06-12T12:08:05.128Z,35.45
2023-06-12T12:10:10.750Z,37.20
2023-06-12T12:12:16.538Z,37.07
2023-06-12T12:14:19.905Z,36.85
2023-06-12T12:16:25.881Z,36.72
2023-06-12T12:18:29.806Z,35.23
2023-06-12T12:20:36.845Z,39.72
2023-06-12T12:22:41.233Z,38.42
2023-06-12T12:25:25.026Z,37.24
2023-06-12T12:27:36.219Z,34.72
2023-06-12T12:29:55.037Z,35.45
2023-06-12T12:32:03.434Z,32.58
2023-06-12T12:34:15.044Z,36.45
2023-06-12T12:36:21.678Z,36.69
2023-06-12T12:38:27.556Z,36.04
2023-06-12T12:40:31.283Z,33.89
2023-06-12T12:42:37.217Z,34.09
2023-06-12T12:44:45.198Z,37.46
2023-06-12T12:46:48.746Z,32.54
2023-06-12T12:48:53.373Z,40.30
2023-06-12T12:51:08.003Z,36.73
2023-06-12T12:53:16.032Z,36.75
2023-06-12T12:55:19.596Z,39.31
2023-06-12T12:57:23.031Z,38.59
2023-06-12T12:59:27.409Z,38.01
2023-06-12T13:01:31.299Z,38.95
2023-06-12T13:03:37.052Z,37.03
2023-06-12T13:05:40.364Z,37.96
2023-06-12T13:07:45.257Z,35.88
2023-06-12T13:09:51.727Z,36.56
2023-06-12T13:11:54.703Z,38.01
2023-06-12T13:13:57.585Z,37.69
2023-06-12T13:16:00.936Z,34.84
2023-06-12T13:18:04.403Z,34.42
2023-06-12T13:20:08.706Z,37.47
2023-06-12T13:22:12.126Z,35.96
2023-06-12T13:24:15.269Z,35.71
2023-06-12T13:26:20.682Z,38.52
2023-06-12T13:28:23.631Z,39.55
2023-06-12T13:30:29.237Z,38.90
2023-06-12T13:32:34.480Z,39.74
2023-06-12T13:34:37.399Z,38.11
2023-06-12T13:36:40.467Z,36.06
2023-06-12T13:38:43.787Z,35.64
2023-06-12T13:40:49.550Z,33.88
2023-06-12T13:42:57.358Z,36.53
2023-06-12T13:45:00.383Z,35.62
2023-06-12T13:47:04.132Z,35.35
2023-06-12T13:49:08.400Z,39.11
2023-06-12T13:51:11.315Z,37.55
2023-06-12T13:53:14.909Z,37.26
2023-06-12T13:55:18.658Z,38.27
2023-06-12T13:57:21.590Z,37.75
2023-06-12T13:59:26.297Z,36.80
2023-06-12T14:01:32.878Z,35.85
2023-06-12T14:03:36.768Z,35.78
2023-06-12T14:05:40.216Z,34.14
2023-06-12T14:07:43.469Z,32.10
2023-06-12T14:09:48.756Z,36.42
2023-06-12T14:11:54.959Z,33.72
2023-06-12T14:13:58.141Z,32.56
2023-06-12T14:16:03.381Z,37.29
2023-06-12T14:18:06.767Z,37.42
2023-06-12T14:20:10.588Z,35.03
2023-06-12T14:22:16.210Z,37.46
2023-06-12T14:26:31.515Z,38.99
2023-06-12T14:28:34.490Z,32.43
2023-06-12T14:30:37.824Z,31.67
2023-06-12T14:32:42.558Z,34.29
2023-06-12T14:34:47.384Z,34.53
2023-06-12T14:36:50.566Z,34.93
2023-06-12T14:38:57.060Z,35.17
2023-06-12T14:41:02.810Z,34.50
2023-06-12T14:43:07.329Z,33.58
2023-06-12T14:45:11.592Z,36.39
2023-06-12T14:47:15.010Z,37.57
2023-06-12T14:49:19.825Z,40.28
2023-06-12T14:51:23.436Z,37.78
2023-06-12T14:53:26.288Z,38.70
2023-06-12T14:55:29.393Z,39.25
2023-06-12T14:57:32.460Z,37.11
2023-06-12T14:59:36.469Z,38.27
2023-06-12T15:01:39.922Z,35.62
2023-06-12T15:03:44.067Z,37.06
2023-06-12T15:05:49.054Z,38.57
2023-06-12T15:07:52.279Z,34.09
2023-06-12T15:09:55.438Z,35.31
2023-06-12T15:11:58.486Z,34.94
2023-06-12T15:14:01.521Z,36.48
2023-06-12T15:16:05.285Z,35.77
2023-06-12T15:18:08.710Z,34.50
2023-06-12T15:20:12.462Z,35.13
2023-06-12T15:22:16.880Z,35.72
2023-06-12T15:24:20.873Z,37.08
2023-06-12T15:26:24.144Z,36.00
2023-06-12T15:28:27.443Z,38.41
2023-06-12T15:30:30.669Z,37.40
2023-06-12T15:32:33.970Z,37.79
2023-06-12T15:34:36.884Z,38.02
2023-06-12T15:36:41.889Z,40.56
2023-06-12T15:38:49.017Z,38.13
2023-06-12T15:40:52.149Z,38.21
2023-06-12T15:42:55.139Z,38.06
2023-06-12T15:45:00.793Z,36.29
2023-06-12T15:47:09.334Z,36.62
2023-06-12T15:49:13.214Z,36.06
2023-06-12T15:51:16.534Z,38.45
2023-06-12T15:53:19.777Z,38.26
2023-06-12T15:55:24.462Z,35.07
2023-06-12T15:57:28.352Z,34.46
2023-06-12T15:59:46.307Z,36.70
2023-06-12T16:01:50.918Z,34.96
2023-06-12T16:03:55.160Z,37.25
2023-06-12T16:05:58.436Z,34.82
2023-06-12T16:08:01.297Z,35.71
2023-06-12T16:10:04.261Z,38.05
2023-06-12T16:12:09.397Z,38.10
2023-06-12T16:14:12.421Z,38.62
2023-06-12T16:16:15.614Z,38.55
2023-06-12T16:18:18.876Z,37.97
2023-06-12T16:20:44.624Z,37.80
2023-06-12T16:22:49.484Z,37.00
2023-06-12T16:27:24.676Z,39.10
2023-06-12T16:29:27.583Z,39.05
2023-06-12T16:31:30.148Z,38.46
2023-06-12T16:33:33.112Z,37.79
2023-06-12T16:35:35.841Z,38.98
2023-06-12T16:37:38.463Z,38.87
2023-06-12T16:39:42.070Z,40.30
2023-06-12T16:41:44.870Z,37.71
2023-06-12T16:43:49.012Z,40.09
2023-06-12T16:45:51.568Z,39.20
2023-06-12T16:47:54.273Z,40.56
2023-06-12T16:49:59.098Z,39.04
2023-06-12T16:52:03.312Z,40.69
2023-06-12T16:54:07.800Z,39.57
2023-06-12T16:56:11.017Z,40.14
2023-06-12T16:58:15.541Z,40.54
2023-06-12T17:00:20.182Z,40.12
2023-06-12T17:02:23.321Z,40.59
2023-06-12T17:04:28.452Z,38.75
2023-06-12T17:06:35.152Z,40.51
2023-06-12T17:08:37.967Z,41.52
2023-06-12T17:10:40.639Z,41.17
2023-06-12T17:12:43.123Z,40.14
2023-06-12T17:14:45.999Z,44.37
2023-06-12T17:16:50.135Z,42.70
2023-06-12T17:18:52.772Z,41.00
2023-06-12T17:20:55.488Z,39.53
2023-06-12T17:22:58.651Z,43.33
2023-06-12T17:25:01.216Z,40.66
2023-06-12T17:27:04.685Z,42.38
2023-06-12T17:29:07.196Z,42.19
2023-06-12T17:31:11.593Z,43.48
2023-06-12T17:33:16.091Z,41.79
2023-06-12T17:35:18.822Z,42.27
2023-06-12T17:37:21.362Z,44.37
2023-06-12T17:39:24.172Z,42.43
2023-06-12T17:41:26.782Z,44.02
2023-06-12T17:43:29.371Z,46.73
2023-06-12T17:45:31.925Z,44.80
2023-06-12T17:47:34.620Z,45.77
2023-06-12T17:49:38.910Z,47.87
2023-06-12T17:51:41.542Z,46.40
2023-06-12T17:53:45.052Z,46.26
2023-06-12T17:55:47.674Z,47.19
2023-06-12T17:57:50.257Z,48.83
2023-06-12T17:59:52.952Z,46.14
2023-06-12T18:01:56.534Z,46.87
2023-06-12T18:03:59.752Z,48.73
2023-06-12T18:06:05.268Z,49.92
2023-06-12T18:08:07.985Z,51.37
2023-06-12T18:10:11.019Z,53.18
2023-06-12T18:12:14.631Z,52.60
2023-06-12T18:14:18.169Z,52.19
2023-06-12T18:16:22.983Z,53.57
2023-06-12T18:18:25.853Z,51.80
2023-06-12T18:20:29.010Z,52.27
2023-06-12T18:22:33.102Z,51.59
2023-06-12T18:24:35.758Z,51.39
2023-06-12T18:26:38.540Z,51.48
2023-06-12T18:28:41.319Z,53.03
2023-06-12T18:30:43.684Z,54.49
2023-06-12T18:32:46.303Z,54.25
2023-06-12T18:34:49.774Z,52.66
2023-06-12T18:36:52.288Z,55.92
2023-06-12T18:38:56.315Z,54.10
2023-06-12T18:40:58.960Z,52.19
2023-06-12T18:43:01.468Z,50.73
2023-06-12T18:45:04.291Z,53.41
2023-06-12T18:47:07.343Z,58.57
2023-06-12T18:49:10.066Z,59.34
2023-06-12T18:51:12.650Z,61.16
2023-06-12T18:53:15.814Z,62.34
2023-06-12T18:55:19.788Z,61.14
2023-06-12T18:57:22.678Z,62.06
2023-06-12T18:59:26.854Z,63.36
2023-06-12T19:01:29.617Z,63.23
2023-06-12T19:03:32.230Z,63.31
2023-06-12T19:05:34.807Z,61.12
2023-06-12T19:07:37.390Z,60.24
2023-06-12T19:09:40.239Z,61.75
2023-06-12T19:11:44.783Z,62.92
2023-06-12T19:13:47.316Z,61.80
2023-06-12T19:15:49.999Z,62.04
2023-06-12T19:17:54.963Z,60.11
2023-06-12T19:19:58.093Z,59.78
2023-06-12T19:22:00.890Z,65.22
2023-06-12T19:24:05.376Z,65.20
2023-06-12T19:26:08.599Z,64.54
2023-06-12T19:28:14.237Z,65.69
2023-06-12T19:30:18.284Z,63.77
2023-06-12T19:32:22.959Z,63.47
2023-06-12T19:34:25.868Z,64.17
2023-06-12T19:36:28.404Z,66.12
2023-06-12T19:38:32.693Z,66.40
2023-06-12T19:40:35.445Z,66.00
2023-06-12T19:42:38.082Z,67.83
2023-06-12T19:44:42.302Z,68.36
2023-06-12T19:46:44.949Z,69.91
2023-06-12T19:48:47.505Z,70.85
2023-06-12T19:50:50.367Z,70.94
2023-06-12T19:52:53.127Z,70.62
2023-06-12T19:54:56.042Z,70.57
2023-06-12T19:56:58.557Z,70.53
2023-06-12T19:59:02.924Z,69.18
2023-06-12T20:01:07.088Z,68.17
2023-06-12T20:03:09.688Z,68.15
2023-06-12T20:05:12.459Z,67.53
2023-06-12T20:07:15.673Z,67.54
2023-06-12T20:09:18.132Z,68.28
2023-06-12T20:11:21.712Z,71.36
2023-06-12T20:13:24.341Z,73.35
2023-06-12T20:15:27.186Z,72.62
2023-06-12T20:17:31.240Z,73.41
2023-06-12T20:19:33.800Z,73.27
2023-06-12T20:21:39.693Z,73.37
2023-06-12T20:23:42.437Z,74.04
2023-06-12T20:25:45.257Z,74.13
2023-06-12T20:27:47.839Z,73.78
2023-06-12T20:29:50.721Z,73.67
2023-06-12T20:31:53.391Z,73.58
2023-06-12T20:33:57.527Z,74.20
2023-06-12T20:36:01.924Z,74.55
2023-06-12T20:38:04.493Z,74.77
2023-06-12T20:40:07.591Z,74.56
2023-06-12T20:42:10.082Z,75.15
2023-06-12T20:44:12.770Z,74.10
2023-06-12T20:46:15.888Z,75.03
2023-06-12T20:48:18.556Z,75.61
2023-06-12T20:50:22.831Z,75.00
2023-06-12T20:52:25.484Z,75.70
2023-06-12T20:54:28.148Z,76.66
2023-06-12T20:56:31.123Z,76.02
2023-06-12T20:58:33.585Z,77.08
2023-06-12T21:00:36.412Z,77.87
2023-06-12T21:02:39.600Z,78.54
2023-06-12T21:04:42.271Z,78.43
2023-06-12T21:06:47.810Z,79.66
2023-06-12T21:08:56.651Z,79.08
2023-06-12T21:10:59.106Z,79.68
2023-06-12T21:13:01.926Z,78.92
2023-06-12T21:15:05.685Z,79.13
2023-06-12T21:17:08.304Z,79.60
2023-06-12T21:19:13.907Z,79.03
2023-06-12T21:21:16.431Z,79.66
2023-06-12T21:23:20.588Z,79.63
2023-06-12T21:25:23.239Z,80.09
2023-06-12T21:27:25.846Z,79.33
2023-06-12T21:29:28.465Z,80.14
2023-06-12T21:31:31.463Z,79.25
2023-06-12T21:33:34.180Z,78.55
2023-06-12T21:35:36.857Z,77.71
2023-06-12T21:37:39.574Z,76.82
2023-06-12T21:39:43.665Z,77.86
2023-06-12T21:41:46.400Z,78.80
2023-06-12T21:43:49.052Z,78.42
2023-06-12T21:45:51.707Z,78.16
2023-06-12T21:47:54.175Z,77.71
2023-06-12T21:49:57.046Z,79.05
2023-06-12T21:51:59.524Z,78.91
2023-06-12T21:54:02.146Z,79.18
2023-06-12T21:56:06.756Z,79.72
2023-06-12T21:58:09.524Z,79.06
2023-06-12T22:00:14.162Z,78.19
2023-06-12T22:02:17.516Z,78.59
2023-06-12T22:04:20.093Z,78.10
2023-06-12T22:06:22.802Z,77.38
2023-06-12T22:08:25.452Z,78.23
2023-06-12T22:10:28.074Z,78.25
2023-06-12T22:12:32.114Z,78.72
2023-06-12T22:14:34.678Z,78.80
2023-06-12T22:16:37.142Z,77.76
2023-06-12T22:18:39.850Z,78.65
2023-06-12T22:20:43.002Z,79.28
2023-06-12T22:22:45.616Z,80.09
2023-06-12T22:24:48.136Z,80.22
2023-06-12T22:26:51.223Z,81.35
2023-06-12T22:28:55.837Z,80.40
2023-06-12T22:31:02.881Z,80.98
2023-06-12T22:33:06.709Z,79.07
2023-06-12T22:35:09.695Z,79.20
2023-06-12T22:37:12.245Z,80.32
2023-06-12T22:39:15.026Z,80.72
2023-06-12T22:41:17.451Z,80.44
2023-06-12T22:43:20.006Z,80.89
2023-06-12T22:45:24.217Z,81.07
2023-06-12T22:47:27.555Z,81.27
2023-06-12T22:49:30.587Z,81.93
2023-06-12T22:51:33.154Z,80.39
2023-06-12T22:53:35.628Z,80.27
2023-06-12T22:55:38.278Z,79.83
2023-06-12T22:57:40.999Z,81.66
2023-06-12T22:59:43.896Z,81.13
2023-06-12T23:01:47.903Z,81.76
2023-06-12T23:03:50.443Z,80.92
2023-06-12T23:05:55.684Z,80.79
2023-06-12T23:07:58.350Z,80.19
2023-06-12T23:10:01.386Z,79.93
2023-06-12T23:12:05.680Z,79.97
2023-06-12T23:14:18.720Z,80.94
2023-06-12T23:16:30.335Z,81.02
2023-06-12T23:18:35.152Z,80.80
2023-06-12T23:20:41.637Z,80.02
2023-06-12T23:22:53.928Z,80.10
2023-06-12T23:24:57.681Z,80.64
2023-06-12T23:27:00.131Z,79.64
2023-06-12T23:29:03.329Z,79.12
2023-06-12T23:31:05.855Z,79.02
2023-06-12T23:33:08.794Z,80.27
2023-06-12T23:35:12.863Z,81.84
2023-06-12T23:37:16.319Z,80.12
2023-06-12T23:39:19.321Z,80.99
2023-06-12T23:41:22.144Z,80.98
2023-06-12T23:43:24.609Z,80.25
2023-06-12T23:45:27.297Z,81.47
2023-06-12T23:47:29.867Z,80.94
2023-06-12T23:49:32.601Z,80.29
2023-06-12T23:51:38.175Z,81.58
2023-06-12T23:53:40.861Z,82.06
2023-06-12T23:55:43.300Z,81.55
2023-06-12T23:57:45.910Z,82.27
2023-06-12T23:59:48.964Z,81.06
